sensor_id;sensor_type;location;lat;lon;timestamp;pressure;altitude;pressure_sealevel;temperature;humidity
75513;BME280;64090;49.770;18.760;2023-05-10T00:00:01;97816.91;;;6.28;62.67
75513;BME280;64090;49.770;18.760;2023-05-10T00:03:24;97812.86;;;6.16;62.50
75513;BME280;64090;49.770;18.760;2023-05-10T00:06:27;97813.69;;;6.05;63.12
75513;BME280;64090;49.770;18.760;2023-05-10T00:09:30;97809.41;;;5.95;63.22
75513;BME280;64090;49.770;18.760;2023-05-10T00:12:33;97810.53;;;5.85;63.22
75513;BME280;64090;49.770;18.760;2023-05-10T00:15:36;97807.29;;;5.77;63.37
75513;BME280;64090;49.770;18.760;2023-05-10T00:18:39;97811.48;;;5.69;63.37
75513;BME280;64090;49.770;18.760;2023-05-10T00:21:42;97808.69;;;5.59;63.17
75513;BME280;64090;49.770;18.760;2023-05-10T00:24:45;97804.84;;;5.50;63.46
75513;BME280;64090;49.770;18.760;2023-05-10T00:27:48;97804.05;;;5.41;63.67
75513;BME280;64090;49.770;18.760;2023-05-10T00:30:52;97803.65;;;5.32;63.87
75513;BME280;64090;49.770;18.760;2023-05-10T00:33:55;97802.23;;;5.23;64.04
75513;BME280;64090;49.770;18.760;2023-05-10T00:36:58;97800.36;;;5.12;64.41
75513;BME280;64090;49.770;18.760;2023-05-10T00:40:01;97795.77;;;5.00;64.30
75513;BME280;64090;49.770;18.760;2023-05-10T00:43:03;97792.15;;;4.88;64.39
75513;BME280;64090;49.770;18.760;2023-05-10T00:46:07;97791.94;;;4.77;64.44
75513;BME280;64090;49.770;18.760;2023-05-10T00:49:10;97787.80;;;4.70;64.54
75513;BME280;64090;49.770;18.760;2023-05-10T00:52:13;97786.05;;;4.65;64.69
75513;BME280;64090;49.770;18.760;2023-05-10T00:55:17;97784.35;;;4.63;64.98
75513;BME280;64090;49.770;18.760;2023-05-10T00:58:20;97768.67;;;4.65;65.14
75513;BME280;64090;49.770;18.760;2023-05-10T01:01:23;97757.12;;;4.68;65.48
75513;BME280;64090;49.770;18.760;2023-05-10T01:04:26;97754.71;;;4.70;65.77
75513;BME280;64090;49.770;18.760;2023-05-10T01:07:30;97753.34;;;4.72;65.60
75513;BME280;64090;49.770;18.760;2023-05-10T01:10:32;97751.68;;;4.71;65.90
75513;BME280;64090;49.770;18.760;2023-05-10T01:13:37;97748.95;;;4.72;65.92
75513;BME280;64090;49.770;18.760;2023-05-10T01:16:42;97747.69;;;4.77;66.24
75513;BME280;64090;49.770;18.760;2023-05-10T01:19:46;97744.64;;;4.86;66.75
75513;BME280;64090;49.770;18.760;2023-05-10T01:33:24;97738.55;;;5.26;66.24
75513;BME280;64090;49.770;18.760;2023-05-10T01:36:34;97737.06;;;5.35;66.10
75513;BME280;64090;49.770;18.760;2023-05-10T01:42:51;97734.59;;;5.46;65.85
75513;BME280;64090;49.770;18.760;2023-05-10T01:46:12;97731.49;;;5.49;65.84
75513;BME280;64090;49.770;18.760;2023-05-10T01:49:25;97728.34;;;5.53;65.73
75513;BME280;64090;49.770;18.760;2023-05-10T01:52:33;97727.88;;;5.54;65.49
75513;BME280;64090;49.770;18.760;2023-05-10T01:55:43;97729.19;;;5.55;65.47
75513;BME280;64090;49.770;18.760;2023-05-10T01:58:48;97719.78;;;5.56;65.57
75513;BME280;64090;49.770;18.760;2023-05-10T02:01:54;97715.33;;;5.56;65.49
75513;BME280;64090;49.770;18.760;2023-05-10T02:04:58;97716.27;;;5.53;65.41
75513;BME280;64090;49.770;18.760;2023-05-10T02:08:03;97711.38;;;5.49;65.24
75513;BME280;64090;49.770;18.760;2023-05-10T02:11:08;97713.11;;;5.45;65.43
75513;BME280;64090;49.770;18.760;2023-05-10T02:14:15;97710.11;;;5.42;65.91
75513;BME280;64090;49.770;18.760;2023-05-10T02:17:19;97707.89;;;5.41;66.05
75513;BME280;64090;49.770;18.760;2023-05-10T02:20:24;97705.33;;;5.42;66.25
75513;BME280;64090;49.770;18.760;2023-05-10T02:23:28;97705.38;;;5.43;66.49
75513;BME280;64090;49.770;18.760;2023-05-10T02:26:33;97707.69;;;5.45;66.09
75513;BME280;64090;49.770;18.760;2023-05-10T02:29:38;97704.12;;;5.47;66.09
75513;BME280;64090;49.770;18.760;2023-05-10T02:32:41;97700.02;;;5.49;65.90
75513;BME280;64090;49.770;18.760;2023-05-10T02:35:46;97703.30;;;5.49;66.03
75513;BME280;64090;49.770;18.760;2023-05-10T02:38:50;97703.39;;;5.47;66.26
75513;BME280;64090;49.770;18.760;2023-05-10T02:41:54;97705.05;;;5.43;66.20
75513;BME280;64090;49.770;18.760;2023-05-10T02:45:05;97704.67;;;5.40;66.13
75513;BME280;64090;49.770;18.760;2023-05-10T02:48:10;97704.86;;;5.35;66.10
75513;BME280;64090;49.770;18.760;2023-05-10T02:51:15;97705.06;;;5.31;66.55
75513;BME280;64090;49.770;18.760;2023-05-10T02:54:24;97706.20;;;5.23;66.47
75513;BME280;64090;49.770;18.760;2023-05-10T02:57:33;97704.55;;;5.16;66.71
75513;BME280;64090;49.770;18.760;2023-05-10T03:00:36;97708.17;;;5.09;66.58
75513;BME280;64090;49.770;18.760;2023-05-10T03:03:39;97707.84;;;5.02;66.79
75513;BME280;64090;49.770;18.760;2023-05-10T03:06:43;97704.99;;;4.96;66.32
75513;BME280;64090;49.770;18.760;2023-05-10T03:10:04;97702.29;;;4.92;66.76
75513;BME280;64090;49.770;18.760;2023-05-10T03:13:20;97702.14;;;4.95;67.28
75513;BME280;64090;49.770;18.760;2023-05-10T03:16:38;97703.99;;;5.02;67.49
75513;BME280;64090;49.770;18.760;2023-05-10T03:20:09;97700.80;;;5.11;67.82
75513;BME280;64090;49.770;18.760;2023-05-10T03:23:40;97700.58;;;5.22;67.61
75513;BME280;64090;49.770;18.760;2023-05-10T03:26:44;97700.68;;;5.35;67.73
75513;BME280;64090;49.770;18.760;2023-05-10T03:29:48;97698.16;;;5.56;67.13
75513;BME280;64090;49.770;18.760;2023-05-10T03:32:53;97699.52;;;6.25;66.27
75513;BME280;64090;49.770;18.760;2023-05-10T03:35:56;97694.77;;;7.04;65.07
75513;BME280;64090;49.770;18.760;2023-05-10T03:38:59;97697.73;;;7.80;63.84
75513;BME280;64090;49.770;18.760;2023-05-10T03:42:02;97692.79;;;8.57;63.07
75513;BME280;64090;49.770;18.760;2023-05-10T03:45:05;97691.81;;;9.33;61.27
75513;BME280;64090;49.770;18.760;2023-05-10T03:48:08;97688.08;;;10.08;60.14
75513;BME280;64090;49.770;18.760;2023-05-10T03:51:11;97690.34;;;10.76;59.12
75513;BME280;64090;49.770;18.760;2023-05-10T03:54:14;97688.61;;;11.25;57.61
75513;BME280;64090;49.770;18.760;2023-05-10T03:57:17;97685.05;;;11.82;55.44
75513;BME280;64090;49.770;18.760;2023-05-10T04:00:20;97684.34;;;12.34;55.50
75513;BME280;64090;49.770;18.760;2023-05-10T04:03:22;97682.73;;;12.83;53.14
75513;BME280;64090;49.770;18.760;2023-05-10T04:06:26;97680.15;;;13.34;52.47
75513;BME280;64090;49.770;18.760;2023-05-10T04:09:29;97675.48;;;13.71;50.60
75513;BME280;64090;49.770;18.760;2023-05-10T04:12:31;97677.15;;;14.09;51.15
75513;BME280;64090;49.770;18.760;2023-05-10T04:15:34;97678.39;;;14.51;50.25
75513;BME280;64090;49.770;18.760;2023-05-10T04:18:38;97677.35;;;14.92;48.86
75513;BME280;64090;49.770;18.760;2023-05-10T04:21:42;97678.77;;;15.21;47.36
75513;BME280;64090;49.770;18.760;2023-05-10T04:24:45;97675.27;;;15.53;46.68
75513;BME280;64090;49.770;18.760;2023-05-10T04:27:48;97677.51;;;15.85;45.66
75513;BME280;64090;49.770;18.760;2023-05-10T04:30:50;97675.08;;;16.26;45.65
75513;BME280;64090;49.770;18.760;2023-05-10T04:33:53;97675.73;;;16.63;44.63
75513;BME280;64090;49.770;18.760;2023-05-10T04:36:56;97679.94;;;16.88;44.47
75513;BME280;64090;49.770;18.760;2023-05-10T04:39:59;97680.02;;;17.19;43.66
75513;BME280;64090;49.770;18.760;2023-05-10T04:43:02;97681.29;;;16.90;43.50
75513;BME280;64090;49.770;18.760;2023-05-10T04:46:05;97679.96;;;16.09;45.54
75513;BME280;64090;49.770;18.760;2023-05-10T04:49:08;97677.47;;;15.45;45.65
75513;BME280;64090;49.770;18.760;2023-05-10T04:52:12;97686.23;;;15.00;45.67
75513;BME280;64090;49.770;18.760;2023-05-10T04:55:15;97687.08;;;14.66;46.61
75513;BME280;64090;49.770;18.760;2023-05-10T04:58:18;97686.79;;;14.45;46.53
75513;BME280;64090;49.770;18.760;2023-05-10T05:01:21;97690.34;;;14.32;47.10
75513;BME280;64090;49.770;18.760;2023-05-10T05:04:25;97689.48;;;14.26;47.45
75513;BME280;64090;49.770;18.760;2023-05-10T05:07:28;97683.71;;;14.24;47.16
75513;BME280;64090;49.770;18.760;2023-05-10T05:10:32;97684.27;;;14.23;47.24
75513;BME280;64090;49.770;18.760;2023-05-10T05:13:35;97680.65;;;14.28;47.21
75513;BME280;64090;49.770;18.760;2023-05-10T05:16:38;97679.02;;;14.29;46.92
75513;BME280;64090;49.770;18.760;2023-05-10T05:19:41;97675.70;;;14.31;46.55
75513;BME280;64090;49.770;18.760;2023-05-10T05:22:44;97676.55;;;14.27;45.98
75513;BME280;64090;49.770;18.760;2023-05-10T05:25:47;97680.33;;;14.26;46.26
75513;BME280;64090;49.770;18.760;2023-05-10T05:28:50;97679.42;;;14.26;46.41
75513;BME280;64090;49.770;18.760;2023-05-10T05:31:56;97680.84;;;14.36;46.48
75513;BME280;64090;49.770;18.760;2023-05-10T05:34:59;97682.92;;;14.40;46.02
75513;BME280;64090;49.770;18.760;2023-05-10T05:38:02;97687.48;;;14.45;46.09
75513;BME280;64090;49.770;18.760;2023-05-10T05:41:04;97687.66;;;14.52;46.36
75513;BME280;64090;49.770;18.760;2023-05-10T05:44:07;97684.58;;;14.68;45.81
75513;BME280;64090;49.770;18.760;2023-05-10T05:47:10;97680.77;;;14.79;45.80
75513;BME280;64090;49.770;18.760;2023-05-10T05:50:13;97685.34;;;14.90;45.48
75513;BME280;64090;49.770;18.760;2023-05-10T05:53:16;97683.38;;;14.96;45.32
75513;BME280;64090;49.770;18.760;2023-05-10T05:56:19;97687.41;;;15.05;45.38
75513;BME280;64090;49.770;18.760;2023-05-10T05:59:27;97683.68;;;15.16;45.27
75513;BME280;64090;49.770;18.760;2023-05-10T06:02:30;97676.64;;;15.30;44.94
75513;BME280;64090;49.770;18.760;2023-05-10T06:05:33;97679.84;;;15.37;44.85
75513;BME280;64090;49.770;18.760;2023-05-10T06:08:36;97676.61;;;15.47;44.91
75513;BME280;64090;49.770;18.760;2023-05-10T06:11:38;97678.13;;;15.53;44.35
75513;BME280;64090;49.770;18.760;2023-05-10T06:14:41;97677.02;;;15.60;44.40
75513;BME280;64090;49.770;18.760;2023-05-10T06:17:44;97677.17;;;15.73;44.13
75513;BME280;64090;49.770;18.760;2023-05-10T06:20:47;97682.14;;;15.83;44.63
75513;BME280;64090;49.770;18.760;2023-05-10T06:23:50;97679.38;;;16.00;44.66
75513;BME280;64090;49.770;18.760;2023-05-10T06:26:52;97683.42;;;16.13;43.98
75513;BME280;64090;49.770;18.760;2023-05-10T06:29:55;97683.59;;;16.20;43.45
75513;BME280;64090;49.770;18.760;2023-05-10T06:33:14;97685.48;;;16.34;43.94
75513;BME280;64090;49.770;18.760;2023-05-10T06:36:18;97682.02;;;16.50;43.28
75513;BME280;64090;49.770;18.760;2023-05-10T06:39:21;97681.77;;;16.64;43.35
75513;BME280;64090;49.770;18.760;2023-05-10T06:42:24;97679.02;;;16.80;43.34
75513;BME280;64090;49.770;18.760;2023-05-10T06:45:28;97680.73;;;16.91;42.88
75513;BME280;64090;49.770;18.760;2023-05-10T06:48:30;97681.80;;;16.98;42.37
75513;BME280;64090;49.770;18.760;2023-05-10T06:51:33;97681.56;;;17.05;42.40
75513;BME280;64090;49.770;18.760;2023-05-10T06:54:36;97682.71;;;17.19;43.10
75513;BME280;64090;49.770;18.760;2023-05-10T06:57:39;97681.09;;;17.34;42.50
75513;BME280;64090;49.770;18.760;2023-05-10T07:00:42;97682.52;;;17.38;41.44
75513;BME280;64090;49.770;18.760;2023-05-10T07:03:46;97678.77;;;17.40;40.88
75513;BME280;64090;49.770;18.760;2023-05-10T07:06:49;97675.13;;;17.48;41.40
75513;BME280;64090;49.770;18.760;2023-05-10T07:09:52;97674.19;;;17.70;41.62
75513;BME280;64090;49.770;18.760;2023-05-10T07:12:55;97674.34;;;17.87;41.23
75513;BME280;64090;49.770;18.760;2023-05-10T07:15:59;97671.55;;;17.94;41.27
75513;BME280;64090;49.770;18.760;2023-05-10T07:19:02;97673.05;;;17.93;41.45
75513;BME280;64090;49.770;18.760;2023-05-10T07:22:05;97669.16;;;18.10;41.82
75513;BME280;64090;49.770;18.760;2023-05-10T07:25:08;97666.61;;;18.32;42.08
75513;BME280;64090;49.770;18.760;2023-05-10T07:28:11;97668.34;;;18.46;41.28
75513;BME280;64090;49.770;18.760;2023-05-10T07:31:14;97664.48;;;18.62;41.44
75513;BME280;64090;49.770;18.760;2023-05-10T07:34:16;97659.70;;;18.73;40.93
75513;BME280;64090;49.770;18.760;2023-05-10T07:37:19;97656.48;;;18.74;40.26
75513;BME280;64090;49.770;18.760;2023-05-10T07:40:22;97655.27;;;18.75;40.25
75513;BME280;64090;49.770;18.760;2023-05-10T07:43:25;97654.08;;;18.91;40.23
75513;BME280;64090;49.770;18.760;2023-05-10T07:46:28;97652.86;;;18.96;39.75
75513;BME280;64090;49.770;18.760;2023-05-10T07:49:31;97651.42;;;19.00;39.29
75513;BME280;64090;49.770;18.760;2023-05-10T07:52:33;97650.56;;;18.99;40.22
75513;BME280;64090;49.770;18.760;2023-05-10T07:55:36;97651.30;;;19.07;40.11
75513;BME280;64090;49.770;18.760;2023-05-10T07:58:39;97649.88;;;19.25;40.22
75513;BME280;64090;49.770;18.760;2023-05-10T08:01:43;97646.40;;;19.34;39.71
75513;BME280;64090;49.770;18.760;2023-05-10T08:04:46;97651.58;;;19.36;40.03
75513;BME280;64090;49.770;18.760;2023-05-10T08:07:49;97645.08;;;19.43;40.63
75513;BME280;64090;49.770;18.760;2023-05-10T08:10:53;97648.06;;;19.49;40.68
75513;BME280;64090;49.770;18.760;2023-05-10T08:13:58;97642.81;;;19.58;41.39
75513;BME280;64090;49.770;18.760;2023-05-10T08:17:01;97640.17;;;19.59;39.36
75513;BME280;64090;49.770;18.760;2023-05-10T08:20:22;97639.70;;;19.60;39.78
75513;BME280;64090;49.770;18.760;2023-05-10T08:23:27;97640.45;;;19.61;39.19
75513;BME280;64090;49.770;18.760;2023-05-10T08:26:30;97640.92;;;19.67;39.47
75513;BME280;64090;49.770;18.760;2023-05-10T08:29:34;97642.62;;;19.79;39.83
75513;BME280;64090;49.770;18.760;2023-05-10T08:32:53;97642.43;;;19.91;39.09
75513;BME280;64090;49.770;18.760;2023-05-10T08:35:57;97642.38;;;20.00;38.85
75513;BME280;64090;49.770;18.760;2023-05-10T08:39:01;97643.67;;;19.96;39.18
75513;BME280;64090;49.770;18.760;2023-05-10T08:42:34;97642.28;;;20.27;39.58
75513;BME280;64090;49.770;18.760;2023-05-10T08:45:43;97640.61;;;20.53;37.48
75513;BME280;64090;49.770;18.760;2023-05-10T08:48:55;97643.02;;;20.78;38.00
75513;BME280;64090;49.770;18.760;2023-05-10T08:52:03;97648.16;;;21.00;37.27
75513;BME280;64090;49.770;18.760;2023-05-10T08:55:10;97649.10;;;21.08;37.79
75513;BME280;64090;49.770;18.760;2023-05-10T08:58:14;97649.27;;;21.02;36.84
75513;BME280;64090;49.770;18.760;2023-05-10T09:01:25;97645.10;;;20.50;36.58
75513;BME280;64090;49.770;18.760;2023-05-10T09:04:34;97656.15;;;20.04;36.69
75513;BME280;64090;49.770;18.760;2023-05-10T09:07:38;97645.05;;;19.83;36.98
75513;BME280;64090;49.770;18.760;2023-05-10T09:10:44;97642.84;;;19.78;36.90
75513;BME280;64090;49.770;18.760;2023-05-10T09:13:51;97646.17;;;19.64;36.55
75513;BME280;64090;49.770;18.760;2023-05-10T09:16:59;97643.94;;;19.28;36.50
75513;BME280;64090;49.770;18.760;2023-05-10T09:20:10;97652.94;;;19.12;36.75
75513;BME280;64090;49.770;18.760;2023-05-10T09:23:14;97646.78;;;19.48;38.05
75513;BME280;64090;49.770;18.760;2023-05-10T09:26:24;97640.42;;;19.58;37.40
75513;BME280;64090;49.770;18.760;2023-05-10T09:29:42;97635.73;;;19.55;37.71
75513;BME280;64090;49.770;18.760;2023-05-10T09:32:47;97638.73;;;19.49;37.80
75513;BME280;64090;49.770;18.760;2023-05-10T09:35:52;97644.27;;;19.28;37.53
75513;BME280;64090;49.770;18.760;2023-05-10T09:38:55;97643.91;;;19.29;38.04
75513;BME280;64090;49.770;18.760;2023-05-10T09:42:05;97642.98;;;19.42;36.75
75513;BME280;64090;49.770;18.760;2023-05-10T09:45:09;97643.23;;;19.69;37.23
75513;BME280;64090;49.770;18.760;2023-05-10T09:48:13;97645.85;;;20.11;37.36
75513;BME280;64090;49.770;18.760;2023-05-10T09:51:25;97636.98;;;20.17;36.84
75513;BME280;64090;49.770;18.760;2023-05-10T09:54:30;97641.39;;;19.89;36.53
75513;BME280;64090;49.770;18.760;2023-05-10T09:57:34;97639.77;;;19.82;37.40
75513;BME280;64090;49.770;18.760;2023-05-10T10:00:51;97638.88;;;20.08;37.23
75513;BME280;64090;49.770;18.760;2023-05-10T10:03:55;97632.35;;;20.30;37.27
75513;BME280;64090;49.770;18.760;2023-05-10T10:07:02;97631.73;;;20.64;37.23
75513;BME280;64090;49.770;18.760;2023-05-10T10:10:06;97626.77;;;21.08;37.22
75513;BME280;64090;49.770;18.760;2023-05-10T10:13:14;97623.92;;;21.27;34.12
75513;BME280;64090;49.770;18.760;2023-05-10T10:16:18;97626.42;;;21.13;35.03
75513;BME280;64090;49.770;18.760;2023-05-10T10:19:22;97616.98;;;21.37;35.79
75513;BME280;64090;49.770;18.760;2023-05-10T10:22:27;97613.59;;;21.74;35.15
75513;BME280;64090;49.770;18.760;2023-05-10T10:25:31;97616.59;;;21.63;33.30
75513;BME280;64090;49.770;18.760;2023-05-10T10:32:38;97619.13;;;21.64;34.85
75513;BME280;64090;49.770;18.760;2023-05-10T10:35:37;97615.88;;;21.90;34.32
75513;BME280;64090;49.770;18.760;2023-05-10T10:41:56;97618.14;;;21.75;34.66
75513;BME280;64090;49.770;18.760;2023-05-10T10:45:12;97624.65;;;21.53;34.92
75513;BME280;64090;49.770;18.760;2023-05-10T10:48:24;97633.88;;;21.31;35.05
75513;BME280;64090;49.770;18.760;2023-05-10T10:51:30;97635.07;;;21.29;35.00
75513;BME280;64090;49.770;18.760;2023-05-10T10:54:34;97631.67;;;21.45;35.56
75513;BME280;64090;49.770;18.760;2023-05-10T11:00:48;97624.64;;;21.71;36.22
75513;BME280;64090;49.770;18.760;2023-05-10T11:07:17;97614.33;;;22.38;34.57
75513;BME280;64090;49.770;18.760;2023-05-10T11:10:21;97613.66;;;22.52;33.20
75513;BME280;64090;49.770;18.760;2023-05-10T11:13:50;97615.44;;;22.47;33.54
75513;BME280;64090;49.770;18.760;2023-05-10T11:16:54;97611.92;;;22.83;32.74
75513;BME280;64090;49.770;18.760;2023-05-10T11:20:08;97609.36;;;23.01;31.90
75513;BME280;64090;49.770;18.760;2023-05-10T11:23:13;97607.64;;;23.05;31.70
75513;BME280;64090;49.770;18.760;2023-05-10T11:26:18;97607.23;;;23.18;31.82
75513;BME280;64090;49.770;18.760;2023-05-10T11:29:21;97606.96;;;23.25;31.25
75513;BME280;64090;49.770;18.760;2023-05-10T11:32:25;97605.42;;;23.44;30.73
75513;BME280;64090;49.770;18.760;2023-05-10T11:35:29;97603.42;;;23.42;30.45
75513;BME280;64090;49.770;18.760;2023-05-10T11:38:33;97597.70;;;23.11;30.59
75513;BME280;64090;49.770;18.760;2023-05-10T11:41:36;97595.61;;;22.77;31.22
75513;BME280;64090;49.770;18.760;2023-05-10T11:44:39;97592.06;;;22.70;31.11
75513;BME280;64090;49.770;18.760;2023-05-10T11:47:48;97596.13;;;22.66;31.28
75513;BME280;64090;49.770;18.760;2023-05-10T11:50:53;97595.65;;;22.69;30.89
75513;BME280;64090;49.770;18.760;2023-05-10T11:54:00;97592.48;;;22.72;31.57
75513;BME280;64090;49.770;18.760;2023-05-10T11:57:03;97592.59;;;22.98;31.44
75513;BME280;64090;49.770;18.760;2023-05-10T12:00:07;97591.02;;;23.11;30.98
75513;BME280;64090;49.770;18.760;2023-05-10T12:03:10;97587.52;;;23.14;30.55
75513;BME280;64090;49.770;18.760;2023-05-10T12:06:14;97589.42;;;23.13;30.91
75513;BME280;64090;49.770;18.760;2023-05-10T12:09:18;97589.97;;;23.18;30.00
75513;BME280;64090;49.770;18.760;2023-05-10T12:12:46;97589.14;;;22.79;30.16
75513;BME280;64090;49.770;18.760;2023-05-10T12:16:00;97587.20;;;22.74;31.94
75513;BME280;64090;49.770;18.760;2023-05-10T12:19:19;97590.52;;;22.68;31.27
75513;BME280;64090;49.770;18.760;2023-05-10T12:22:24;97590.30;;;22.62;32.07
75513;BME280;64090;49.770;18.760;2023-05-10T12:25:32;97593.45;;;22.51;32.55
75513;BME280;64090;49.770;18.760;2023-05-10T12:28:37;97594.08;;;22.35;31.74
75513;BME280;64090;49.770;18.760;2023-05-10T12:31:55;97592.61;;;22.14;31.84
75513;BME280;64090;49.770;18.760;2023-05-10T12:34:59;97588.15;;;22.10;32.15
75513;BME280;64090;49.770;18.760;2023-05-10T12:41:29;97584.04;;;22.49;30.33
75513;BME280;64090;49.770;18.760;2023-05-10T12:44:32;97580.13;;;22.76;31.03
75513;BME280;64090;49.770;18.760;2023-05-10T12:47:35;97578.92;;;22.98;30.72
75513;BME280;64090;49.770;18.760;2023-05-10T12:50:39;97571.77;;;22.76;30.04
75513;BME280;64090;49.770;18.760;2023-05-10T12:53:42;97573.14;;;22.70;30.52
75513;BME280;64090;49.770;18.760;2023-05-10T12:56:52;97573.50;;;22.73;31.79
75513;BME280;64090;49.770;18.760;2023-05-10T12:59:56;97572.77;;;22.69;33.09
75513;BME280;64090;49.770;18.760;2023-05-10T13:03:23;97573.11;;;22.83;33.43
75513;BME280;64090;49.770;18.760;2023-05-10T13:06:27;97568.13;;;22.96;33.26
75513;BME280;64090;49.770;18.760;2023-05-10T13:09:31;97566.80;;;23.06;32.58
75513;BME280;64090;49.770;18.760;2023-05-10T13:12:36;97567.13;;;22.95;32.48
75513;BME280;64090;49.770;18.760;2023-05-10T13:15:42;97566.13;;;22.86;33.11
75513;BME280;64090;49.770;18.760;2023-05-10T13:18:45;97559.16;;;22.83;33.60
75513;BME280;64090;49.770;18.760;2023-05-10T13:21:49;97561.35;;;22.86;33.11
75513;BME280;64090;49.770;18.760;2023-05-10T13:24:53;97559.41;;;22.82;32.64
75513;BME280;64090;49.770;18.760;2023-05-10T13:27:56;97556.00;;;22.75;32.90
75513;BME280;64090;49.770;18.760;2023-05-10T13:30:59;97558.09;;;22.87;33.33
75513;BME280;64090;49.770;18.760;2023-05-10T13:34:03;97553.70;;;23.08;32.44
75513;BME280;64090;49.770;18.760;2023-05-10T13:37:07;97550.29;;;23.31;32.87
75513;BME280;64090;49.770;18.760;2023-05-10T13:40:09;97547.67;;;23.47;32.55
75513;BME280;64090;49.770;18.760;2023-05-10T13:43:19;97543.72;;;23.47;32.28
75513;BME280;64090;49.770;18.760;2023-05-10T13:46:22;97541.19;;;23.14;32.72
75513;BME280;64090;49.770;18.760;2023-05-10T13:49:26;97543.14;;;22.68;32.95
75513;BME280;64090;49.770;18.760;2023-05-10T13:52:29;97540.05;;;22.44;33.66
75513;BME280;64090;49.770;18.760;2023-05-10T13:55:33;97537.95;;;22.51;34.52
75513;BME280;64090;49.770;18.760;2023-05-10T13:58:37;97534.74;;;22.91;33.80
75513;BME280;64090;49.770;18.760;2023-05-10T14:01:41;97531.06;;;23.40;33.51
75513;BME280;64090;49.770;18.760;2023-05-10T14:04:45;97528.17;;;23.78;32.61
75513;BME280;64090;49.770;18.760;2023-05-10T14:07:49;97526.88;;;24.10;32.14
75513;BME280;64090;49.770;18.760;2023-05-10T14:10:53;97524.55;;;24.04;30.98
75513;BME280;64090;49.770;18.760;2023-05-10T14:14:00;97524.48;;;23.82;32.10
75513;BME280;64090;49.770;18.760;2023-05-10T14:17:11;97519.73;;;23.84;32.11
75513;BME280;64090;49.770;18.760;2023-05-10T14:20:15;97521.42;;;23.72;31.30
75513;BME280;64090;49.770;18.760;2023-05-10T14:23:17;97523.84;;;23.58;31.45
75513;BME280;64090;49.770;18.760;2023-05-10T14:26:22;97520.52;;;23.48;31.61
75513;BME280;64090;49.770;18.760;2023-05-10T14:29:25;97515.13;;;23.35;31.12
75513;BME280;64090;49.770;18.760;2023-05-10T14:32:28;97510.74;;;23.26;31.59
75513;BME280;64090;49.770;18.760;2023-05-10T14:35:32;97514.27;;;23.46;31.26
75513;BME280;64090;49.770;18.760;2023-05-10T14:38:35;97509.43;;;23.71;31.50
75513;BME280;64090;49.770;18.760;2023-05-10T14:41:39;97508.70;;;23.85;30.47
75513;BME280;64090;49.770;18.760;2023-05-10T14:44:45;97514.32;;;23.75;31.33
75513;BME280;64090;49.770;18.760;2023-05-10T14:47:49;97511.99;;;23.59;31.29
75513;BME280;64090;49.770;18.760;2023-05-10T14:50:54;97509.23;;;23.52;31.50
75513;BME280;64090;49.770;18.760;2023-05-10T14:53:57;97513.33;;;23.43;31.46
75513;BME280;64090;49.770;18.760;2023-05-10T14:57:02;97510.18;;;23.29;31.89
75513;BME280;64090;49.770;18.760;2023-05-10T15:00:14;97506.57;;;23.30;31.99
75513;BME280;64090;49.770;18.760;2023-05-10T15:03:24;97504.89;;;23.34;31.77
75513;BME280;64090;49.770;18.760;2023-05-10T15:06:33;97506.09;;;23.09;31.69
75513;BME280;64090;49.770;18.760;2023-05-10T15:09:45;97508.91;;;22.82;32.70
75513;BME280;64090;49.770;18.760;2023-05-10T15:12:50;97507.44;;;22.62;32.38
75513;BME280;64090;49.770;18.760;2023-05-10T15:15:58;97509.06;;;22.42;32.62
75513;BME280;64090;49.770;18.760;2023-05-10T15:19:07;97510.07;;;22.10;32.81
75513;BME280;64090;49.770;18.760;2023-05-10T15:22:14;97505.58;;;21.78;33.00
75513;BME280;64090;49.770;18.760;2023-05-10T15:25:21;97506.46;;;21.57;33.64
75513;BME280;64090;49.770;18.760;2023-05-10T15:28:26;97512.08;;;21.40;34.20
75513;BME280;64090;49.770;18.760;2023-05-10T15:31:31;97509.86;;;21.21;34.49
75513;BME280;64090;49.770;18.760;2023-05-10T15:34:55;97513.46;;;20.80;34.77
75513;BME280;64090;49.770;18.760;2023-05-10T15:38:03;97519.20;;;20.42;35.06
75513;BME280;64090;49.770;18.760;2023-05-10T15:41:07;97518.92;;;20.11;35.40
75513;BME280;64090;49.770;18.760;2023-05-10T15:44:12;97519.33;;;19.79;36.37
75513;BME280;64090;49.770;18.760;2023-05-10T15:47:16;97524.61;;;19.45;36.60
75513;BME280;64090;49.770;18.760;2023-05-10T15:50:20;97525.60;;;19.21;36.72
75513;BME280;64090;49.770;18.760;2023-05-10T15:53:25;97530.73;;;19.07;37.00
75513;BME280;64090;49.770;18.760;2023-05-10T15:56:37;97524.77;;;18.95;37.10
75513;BME280;64090;49.770;18.760;2023-05-10T15:59:40;97525.66;;;18.87;36.89
75513;BME280;64090;49.770;18.760;2023-05-10T16:02:53;97530.67;;;18.69;37.20
75513;BME280;64090;49.770;18.760;2023-05-10T16:05:56;97529.91;;;18.54;37.46
75513;BME280;64090;49.770;18.760;2023-05-10T16:09:02;97530.19;;;18.49;37.58
75513;BME280;64090;49.770;18.760;2023-05-10T16:12:07;97529.92;;;18.49;37.53
75513;BME280;64090;49.770;18.760;2023-05-10T16:15:34;97528.83;;;18.46;37.34
75513;BME280;64090;49.770;18.760;2023-05-10T16:18:38;97526.26;;;18.39;37.52
75513;BME280;64090;49.770;18.760;2023-05-10T16:21:45;97529.73;;;18.33;37.18
75513;BME280;64090;49.770;18.760;2023-05-10T16:24:49;97529.64;;;18.25;37.27
75513;BME280;64090;49.770;18.760;2023-05-10T16:27:55;97525.41;;;18.15;37.46
75513;BME280;64090;49.770;18.760;2023-05-10T16:31:09;97525.20;;;18.08;37.80
75513;BME280;64090;49.770;18.760;2023-05-10T16:34:22;97523.06;;;18.00;38.42
75513;BME280;64090;49.770;18.760;2023-05-10T16:37:27;97524.55;;;17.91;39.51
75513;BME280;64090;49.770;18.760;2023-05-10T16:40:32;97526.27;;;17.90;40.49
75513;BME280;64090;49.770;18.760;2023-05-10T16:43:39;97526.99;;;17.93;40.28